Time;durP1;ratioP1;P1;durP2;ratioP2;P2;SDS_P1;SDS_P2;PMS_P1;PMS_P2;Temp;Humidity;BMP_temperature;BMP_pressure;BME280_temperature;BME280_humidity;BME280_pressure;Samples;Min_cycle;Max_cycle;Signal;HPM_P1;HPM_P2
2021/10/18 00:00:24;;;;;;;316.95;68.55;;;;;;;6.28;100.00;96626.41;1024661;28;20031;-50
2021/10/18 00:00:55;;;;;;;343.42;70.53;;;;;;;6.35;100.00;96626.06;1024862;28;20024;-49
2021/10/18 00:01:26;;;;;;;363.60;71.22;;;;;;;6.33;100.00;96629.66;1025376;28;20489;-50
2021/10/18 00:01:56;;;;;;;358.80;71.45;;;;;;;6.30;100.00;96630.63;1021551;28;20047;-49
2021/10/18 00:02:27;;;;;;;329.35;68.65;;;;;;;6.24;100.00;96628.28;1028702;28;20031;-50
2021/10/18 00:02:58;;;;;;;347.23;69.25;;;;;;;6.21;100.00;96625.78;1028749;28;20022;-48
2021/10/18 00:03:29;;;;;;;320.77;65.78;;;;;;;6.24;100.00;96630.88;1028701;28;20053;-49
2021/10/18 00:03:59;;;;;;;322.52;65.93;;;;;;;6.22;100.00;96628.34;1029147;28;20117;-50
2021/10/18 00:04:30;;;;;;;365.83;72.93;;;;;;;6.21;100.00;96626.66;1028564;28;20027;-50
2021/10/18 00:05:00;;;;;;;430.67;77.82;;;;;;;6.10;100.00;96634.06;1033264;28;20011;-50
2021/10/18 00:05:32;;;;;;;424.15;76.40;;;;;;;5.99;100.00;96636.28;1033171;28;20054;-50
2021/10/18 00:06:03;;;;;;;333.30;68.35;;;;;;;6.01;100.00;96632.69;1028942;28;20031;-49
2021/10/18 00:06:33;;;;;;;306.67;69.47;;;;;;;6.06;100.00;96632.47;1024955;28;20310;-50
2021/10/18 00:07:04;;;;;;;423.92;78.28;;;;;;;6.05;100.00;96636.00;1028917;28;20075;-49
2021/10/18 00:07:35;;;;;;;374.52;75.22;;;;;;;6.09;100.00;96628.94;1028935;28;20066;-48
2021/10/18 00:08:06;;;;;;;320.20;71.47;;;;;;;6.04;100.00;96634.31;1025218;28;20525;-50
2021/10/18 00:08:37;;;;;;;416.55;76.32;;;;;;;6.05;100.00;96630.81;1028652;28;20791;-49
2021/10/18 00:09:07;;;;;;;413.10;74.90;;;;;;;6.01;100.00;96635.28;1029054;28;20289;-49
2021/10/18 00:09:38;;;;;;;389.17;75.95;;;;;;;6.05;100.00;96624.75;1025073;28;20050;-50
2021/10/18 00:10:09;;;;;;;373.02;74.10;;;;;;;6.00;100.00;96633.56;1028991;28;20094;-50
2021/10/18 00:10:40;;;;;;;226.35;60.25;;;;;;;6.06;100.00;96635.09;1032739;28;20049;-49
2021/10/18 00:11:11;;;;;;;263.92;66.13;;;;;;;6.10;100.00;96630.59;1028619;28;20362;-49
2021/10/18 00:11:41;;;;;;;464.77;79.35;;;;;;;6.09;100.00;96629.75;1025147;28;20025;-49
2021/10/18 00:12:12;;;;;;;465.50;83.35;;;;;;;6.08;100.00;96629.81;1025222;28;20042;-50
2021/10/18 00:12:43;;;;;;;418.40;78.18;;;;;;;6.01;100.00;96630.09;1028972;28;20030;-49
2021/10/18 00:13:14;;;;;;;281.35;64.25;;;;;;;6.11;100.00;96621.91;1036573;28;20062;-50
2021/10/18 00:13:45;;;;;;;184.05;55.30;;;;;;;6.18;100.00;96623.34;1032911;28;20026;-49
2021/10/18 00:14:16;;;;;;;178.50;57.15;;;;;;;6.22;100.00;96620.53;1029055;28;20755;-51
2021/10/18 00:14:46;;;;;;;323.38;70.20;;;;;;;6.21;100.00;96623.19;1028651;28;20050;-49
2021/10/18 00:15:18;;;;;;;355.92;72.22;;;;;;;6.20;100.00;96621.50;1028698;28;20130;-48
2021/10/18 00:15:49;;;;;;;413.15;77.40;;;;;;;6.14;100.00;96627.81;1028798;28;20054;-49
2021/10/18 00:16:20;;;;;;;359.00;73.00;;;;;;;6.14;100.00;96629.59;1033075;28;20285;-52
2021/10/18 00:16:50;;;;;;;454.63;79.88;;;;;;;6.13;100.00;96617.47;1020654;29;20123;-49
2021/10/18 00:17:21;;;;;;;279.98;62.13;;;;;;;6.15;100.00;96632.09;1021056;29;20056;-49
2021/10/18 00:17:51;;;;;;;252.20;61.38;;;;;;;6.19;100.00;96623.28;1020901;29;20047;-49
2021/10/18 00:18:22;;;;;;;429.40;77.72;;;;;;;6.20;100.00;96630.16;1021259;28;20580;-49
2021/10/18 00:18:53;;;;;;;512.75;85.88;;;;;;;6.20;100.00;96634.53;1028586;28;20027;-50
2021/10/18 00:19:24;;;;;;;517.53;84.78;;;;;;;6.14;100.00;96633.03;1028583;28;20369;-50
2021/10/18 00:19:54;;;;;;;483.42;78.18;;;;;;;6.13;100.00;96640.88;1024972;29;20039;-50
2021/10/18 00:20:26;;;;;;;528.42;87.50;;;;;;;6.15;100.00;96639.06;1024763;29;20023;-49
2021/10/18 00:20:56;;;;;;;371.83;71.15;;;;;;;6.13;100.00;96635.69;1025431;28;20464;-50
2021/10/18 00:21:28;;;;;;;402.42;72.93;;;;;;;6.17;100.00;96635.47;1029361;28;20325;-50
2021/10/18 00:21:59;;;;;;;301.27;66.30;;;;;;;6.18;100.00;96637.19;1032689;28;20025;-48
2021/10/18 00:22:30;;;;;;;539.88;86.80;;;;;;;6.17;100.00;96632.88;1032896;28;20277;-49
2021/10/18 00:23:00;;;;;;;505.20;84.78;;;;;;;6.17;100.00;96635.47;1024590;29;20094;-50
2021/10/18 00:23:31;;;;;;;379.38;74.75;;;;;;;6.22;100.00;96638.75;1024996;29;20102;-49
2021/10/18 00:24:02;;;;;;;415.25;77.55;;;;;;;6.28;100.00;96636.81;1024623;29;20117;-50
2021/10/18 00:24:33;;;;;;;574.53;90.35;;;;;;;6.21;100.00;96639.66;1024527;29;20490;-49
2021/10/18 00:25:03;;;;;;;529.08;84.97;;;;;;;6.17;100.00;96640.69;1020886;29;20035;-50
2021/10/18 00:25:35;;;;;;;534.03;84.93;;;;;;;6.23;100.00;96643.06;1021211;28;20066;-50
2021/10/18 00:26:05;;;;;;;535.28;85.07;;;;;;;6.23;100.00;96639.59;1029322;28;20031;-49
2021/10/18 00:26:36;;;;;;;376.42;67.20;;;;;;;6.29;100.00;96634.16;1029201;28;20314;-49
2021/10/18 00:27:07;;;;;;;449.95;80.28;;;;;;;6.28;100.00;96624.63;1025172;28;20438;-50
2021/10/18 00:27:38;;;;;;;598.25;92.07;;;;;;;6.22;100.00;96638.75;1028759;28;20019;-49
2021/10/18 00:28:08;;;;;;;516.42;82.28;;;;;;;6.21;100.00;96638.81;1025249;28;20026;-50
2021/10/18 00:28:39;;;;;;;243.23;61.67;;;;;;;6.19;100.00;96643.22;1028523;28;20531;-49
2021/10/18 00:29:10;;;;;;;284.90;63.08;;;;;;;6.24;100.00;96636.09;1020751;29;20054;-50
2021/10/18 00:29:41;;;;;;;248.73;60.00;;;;;;;6.25;100.00;96637.78;1024560;29;20114;-49
2021/10/18 00:30:13;;;;;;;443.17;80.75;;;;;;;6.25;100.00;96647.34;1024554;29;20281;-50
2021/10/18 00:30:43;;;;;;;385.67;71.07;;;;;;;6.16;100.00;96641.63;1024811;28;20121;-50
2021/10/18 00:31:14;;;;;;;352.33;70.03;;;;;;;6.21;100.00;96641.41;1021290;29;20327;-49
2021/10/18 00:31:45;;;;;;;474.73;77.88;;;;;;;6.16;100.00;96639.00;1024831;29;20055;-50
2021/10/18 00:32:16;;;;;;;560.50;89.07;;;;;;;6.15;100.00;96644.28;1028978;28;20114;-49
2021/10/18 00:32:46;;;;;;;326.23;65.88;;;;;;;6.10;100.00;96641.00;1024926;29;20221;-50
2021/10/18 00:33:17;;;;;;;482.58;81.18;;;;;;;6.07;100.00;96646.34;1024772;29;20805;-49
2021/10/18 00:33:48;;;;;;;517.53;82.45;;;;;;;6.04;100.00;96647.31;1024610;29;20062;-50
2021/10/18 00:34:18;;;;;;;565.88;87.47;;;;;;;6.07;100.00;96644.59;1024723;29;20045;-49
2021/10/18 00:34:49;;;;;;;378.10;69.68;;;;;;;6.03;100.00;96638.66;1028716;28;20069;-50
2021/10/18 00:35:20;;;;;;;545.90;85.93;;;;;;;6.03;100.00;96638.66;1033012;28;20026;-50
2021/10/18 00:35:50;;;;;;;533.90;85.82;;;;;;;5.98;100.00;96645.81;1028934;28;20019;-50
2021/10/18 00:36:21;;;;;;;563.60;88.75;;;;;;;5.97;100.00;96638.94;1028503;28;20484;-50
2021/10/18 00:36:52;;;;;;;616.85;94.63;;;;;;;6.05;100.00;96640.38;1032360;28;20448;-49
2021/10/18 00:37:23;;;;;;;501.83;83.30;;;;;;;6.03;100.00;96638.66;1032743;28;20050;-50
2021/10/18 00:37:53;;;;;;;458.60;74.13;;;;;;;6.09;100.00;96641.94;1024913;28;20077;-49
2021/10/18 00:38:24;;;;;;;631.30;92.22;;;;;;;6.07;100.00;96638.56;1024781;29;20122;-49
2021/10/18 00:38:55;;;;;;;558.15;86.82;;;;;;;6.07;100.00;96643.75;1020800;29;20039;-50
2021/10/18 00:39:26;;;;;;;579.40;89.07;;;;;;;6.02;100.00;96647.41;1028589;28;20022;-49
2021/10/18 00:39:56;;;;;;;448.00;76.57;;;;;;;6.05;100.00;96642.97;1032493;28;20029;-51
2021/10/18 00:40:27;;;;;;;585.83;88.18;;;;;;;6.07;100.00;96646.34;1029148;28;20019;-51
2021/10/18 00:40:57;;;;;;;665.50;94.28;;;;;;;6.04;100.00;96644.72;1036790;28;20133;-49
2021/10/18 00:41:28;;;;;;;582.63;86.78;;;;;;;6.07;100.00;96644.59;1032906;28;20496;-49
2021/10/18 00:41:59;;;;;;;545.08;86.20;;;;;;;6.07;100.00;96646.34;1028481;28;20019;-50
2021/10/18 00:42:30;;;;;;;532.08;84.43;;;;;;;6.01;100.00;96643.09;1024885;29;20086;-50
2021/10/18 00:43:01;;;;;;;474.30;79.03;;;;;;;6.01;100.00;96645.69;1028728;28;20065;-49
2021/10/18 00:43:31;;;;;;;416.90;74.28;;;;;;;6.01;100.00;96644.84;1032663;28;20258;-49
2021/10/18 00:44:02;;;;;;;362.88;70.68;;;;;;;6.07;100.00;96643.75;1028709;28;20259;-50
2021/10/18 00:44:33;;;;;;;441.50;78.97;;;;;;;6.01;100.00;96645.69;1024761;29;20023;-49
2021/10/18 00:45:05;;;;;;;408.92;76.38;;;;;;;6.01;100.00;96650.88;1028736;28;20026;-48
2021/10/18 00:45:35;;;;;;;382.73;73.07;;;;;;;6.04;100.00;96644.72;1028904;28;20033;-49
2021/10/18 00:46:06;;;;;;;319.90;68.40;;;;;;;6.06;100.00;96636.84;1032500;28;20315;-49
2021/10/18 00:46:37;;;;;;;381.13;71.90;;;;;;;6.01;100.00;96640.50;1028813;28;20436;-49
2021/10/18 00:47:08;;;;;;;145.80;51.25;;;;;;;6.08;100.00;96648.03;1028971;28;20105;-50
2021/10/18 00:47:39;;;;;;;392.15;74.43;;;;;;;6.03;100.00;96643.88;1021374;28;20645;-50
2021/10/18 00:48:10;;;;;;;396.35;73.65;;;;;;;6.07;100.00;96643.75;1021049;29;20263;-49
2021/10/18 00:48:41;;;;;;;292.70;65.25;;;;;;;6.07;100.00;96643.75;1032790;28;20310;-49
2021/10/18 00:49:12;;;;;;;282.95;65.65;;;;;;;6.09;100.00;96641.94;1028555;28;20066;-50
2021/10/18 00:49:43;;;;;;;447.38;79.40;;;;;;;6.04;100.00;96639.50;1032778;28;20532;-49
2021/10/18 00:50:14;;;;;;;430.58;75.80;;;;;;;6.01;100.00;96634.44;1032688;28;20270;-49
2021/10/18 00:50:44;;;;;;;472.73;80.78;;;;;;;6.02;100.00;96636.13;1033182;28;20707;-49
2021/10/18 00:51:16;;;;;;;351.20;67.32;;;;;;;6.06;100.00;96635.09;1032545;28;20034;-48
2021/10/18 00:51:47;;;;;;;414.17;75.40;;;;;;;6.06;100.00;96639.44;1033144;28;20025;-50
2021/10/18 00:52:18;;;;;;;347.30;70.78;;;;;;;6.12;100.00;96642.66;1028921;28;20683;-50
2021/10/18 00:52:49;;;;;;;266.17;62.92;;;;;;;6.16;100.00;96640.78;1024594;29;20038;-49
2021/10/18 00:53:19;;;;;;;391.38;74.03;;;;;;;6.07;100.00;96635.94;1028680;28;20768;-50
2021/10/18 00:53:52;;;;;;;405.85;74.78;;;;;;;6.10;100.00;96638.41;1021107;29;20508;-50
2021/10/18 00:54:23;;;;;;;356.20;71.05;;;;;;;6.11;100.00;96638.34;1020756;29;20122;-50
2021/10/18 00:54:54;;;;;;;423.60;74.72;;;;;;;6.06;100.00;96635.09;1024835;29;20294;-49
2021/10/18 00:55:24;;;;;;;342.42;70.80;;;;;;;6.07;100.00;96634.19;1028799;28;20034;-49
2021/10/18 00:55:55;;;;;;;460.10;79.10;;;;;;;6.07;100.00;96633.34;1028733;28;20465;-49
2021/10/18 00:56:26;;;;;;;190.35;57.40;;;;;;;6.14;100.00;96635.63;1024646;29;20051;-50
2021/10/18 00:56:57;;;;;;;255.45;63.45;;;;;;;6.14;100.00;96629.59;1024499;29;20118;-49
2021/10/18 00:57:27;;;;;;;176.50;58.08;;;;;;;6.26;100.00;96628.22;1024495;29;20038;-50
2021/10/18 00:57:58;;;;;;;389.60;74.22;;;;;;;6.22;100.00;96637.91;1032826;28;20277;-50
2021/10/18 00:58:29;;;;;;;325.85;67.13;;;;;;;6.16;100.00;96628.59;1028734;28;20061;-48
2021/10/18 00:59:00;;;;;;;452.42;80.45;;;;;;;6.12;100.00;96632.25;1024733;28;20066;-50
2021/10/18 00:59:31;;;;;;;271.17;63.20;;;;;;;6.11;100.00;96632.31;1028642;28;20025;-49
2021/10/18 01:00:04;;;;;;;451.45;78.35;;;;;;;6.13;100.00;96630.47;1032478;28;20463;-50
2021/10/18 01:00:35;;;;;;;406.58;74.13;;;;;;;6.13;100.00;96628.72;1028044;28;20282;-49
2021/10/18 01:01:06;;;;;;;373.08;71.28;;;;;;;6.07;100.00;96620.34;1024770;29;20354;-49
2021/10/18 01:01:37;;;;;;;424.05;76.35;;;;;;;6.08;100.00;96627.22;1028589;28;20058;-48
2021/10/18 01:02:07;;;;;;;259.75;61.53;;;;;;;6.18;100.00;96620.75;1024481;29;20282;-49
2021/10/18 01:02:38;;;;;;;304.73;68.15;;;;;;;6.23;100.00;96624.84;1028373;28;20023;-49
2021/10/18 01:03:09;;;;;;;432.83;75.07;;;;;;;6.11;100.00;96625.34;1027818;28;20027;-48
2021/10/18 01:03:40;;;;;;;360.13;71.90;;;;;;;6.15;100.00;96618.25;1028343;28;20448;-51
2021/10/18 01:04:11;;;;;;;395.17;73.07;;;;;;;6.17;100.00;96617.25;1028725;28;20286;-49
2021/10/18 01:04:41;;;;;;;308.35;68.28;;;;;;;6.20;100.00;96617.16;1028496;28;20503;-49
2021/10/18 01:05:14;;;;;;;340.02;68.32;;;;;;;6.26;100.00;96620.41;1028984;28;20106;-49
2021/10/18 01:05:45;;;;;;;322.80;70.05;;;;;;;6.21;100.00;96616.25;1024936;29;20027;-49
2021/10/18 01:06:16;;;;;;;360.35;69.93;;;;;;;6.14;100.00;96624.38;1028788;28;20282;-50
2021/10/18 01:06:46;;;;;;;345.75;68.63;;;;;;;6.20;100.00;96622.34;1029100;28;20266;-50
2021/10/18 01:07:17;;;;;;;267.45;61.28;;;;;;;6.23;100.00;96619.63;1037636;28;20053;-50
2021/10/18 01:07:49;;;;;;;324.92;66.75;;;;;;;6.19;100.00;96625.00;1036834;28;20017;-49
2021/10/18 01:08:20;;;;;;;320.25;67.43;;;;;;;6.17;100.00;96619.03;1032786;28;20018;-50
2021/10/18 01:08:51;;;;;;;383.33;72.90;;;;;;;6.20;100.00;96619.75;1032786;28;20305;-49
2021/10/18 01:09:21;;;;;;;432.40;76.22;;;;;;;6.24;100.00;96617.88;1036741;28;20117;-49
2021/10/18 01:09:52;;;;;;;408.88;73.13;;;;;;;6.16;100.00;96630.38;1024863;29;20101;-49
2021/10/18 01:10:23;;;;;;;420.77;76.20;;;;;;;6.14;100.00;96629.59;1032897;28;20058;-48
2021/10/18 01:10:54;;;;;;;381.60;71.22;;;;;;;6.15;100.00;96626.06;1032771;28;20026;-49
2021/10/18 01:11:24;;;;;;;381.50;73.07;;;;;;;6.20;100.00;96619.75;1024881;29;20031;-51
2021/10/18 01:11:55;;;;;;;356.90;69.60;;;;;;;6.16;100.00;96614.75;1024598;29;20023;-50
2021/10/18 01:12:26;;;;;;;386.95;71.60;;;;;;;6.15;100.00;96610.44;1036671;28;20057;-49
2021/10/18 01:12:57;;;;;;;304.90;65.78;;;;;;;6.15;100.00;96613.88;1028271;28;20023;-49
2021/10/18 01:13:28;;;;;;;322.05;66.25;;;;;;;6.15;100.00;96610.44;1024738;29;20263;-50
2021/10/18 01:13:58;;;;;;;258.65;61.33;;;;;;;6.22;100.00;96617.09;1020915;29;20051;-49
2021/10/18 01:14:29;;;;;;;374.80;66.90;;;;;;;6.20;100.00;96611.94;1024518;29;20524;-51
2021/10/18 01:14:59;;;;;;;370.35;71.32;;;;;;;6.17;100.00;96612.06;1024552;29;20034;-48
2021/10/18 01:15:31;;;;;;;457.70;76.13;;;;;;;6.11;100.00;96603.69;1032673;28;20022;-48
2021/10/18 01:16:01;;;;;;;424.35;74.03;;;;;;;6.03;100.00;96615.25;1028810;28;20114;-49
2021/10/18 01:16:32;;;;;;;545.50;81.93;;;;;;;5.95;100.00;96619.03;1024733;29;20277;-50
2021/10/18 01:17:03;;;;;;;349.20;67.20;;;;;;;6.05;100.00;96622.16;1028575;28;20062;-50
2021/10/18 01:17:33;;;;;;;389.17;69.22;;;;;;;5.99;100.00;96605.91;1033026;28;20049;-49
2021/10/18 01:18:04;;;;;;;199.52;53.10;;;;;;;6.12;100.00;96613.16;1032510;28;20089;-49
2021/10/18 01:18:35;;;;;;;375.67;68.88;;;;;;;6.08;100.00;96614.22;1028656;28;20105;-50
2021/10/18 01:19:15;;;;;;;431.23;69.82;;;;;;;6.08;100.00;96603.81;1032659;28;20034;-48
2021/10/18 01:19:45;;;;;;;522.15;79.38;;;;;;;6.16;100.00;96614.75;1030355;28;20066;-49
2021/10/18 01:20:28;;;;;;;483.35;73.32;;;;;;;6.17;100.00;96614.66;1032449;28;20085;-49
2021/10/18 01:20:59;;;;;;;478.60;72.25;;;;;;;6.14;100.00;96616.59;1040502;28;20116;-50
2021/10/18 01:21:29;;;;;;;468.48;75.70;;;;;;;6.12;100.00;96610.56;1032963;28;20331;-51
2021/10/18 01:22:02;;;;;;;423.52;72.30;;;;;;;6.17;100.00;96619.03;1024697;29;20019;-50
2021/10/18 01:22:32;;;;;;;278.83;61.03;;;;;;;6.19;100.00;96617.22;1020975;29;20035;-50
2021/10/18 01:23:03;;;;;;;422.33;71.38;;;;;;;6.21;100.00;96615.38;1020856;29;20310;-50
2021/10/18 01:23:34;;;;;;;408.40;72.22;;;;;;;6.20;100.00;96611.09;1020986;29;20118;-50
2021/10/18 01:24:05;;;;;;;407.00;70.50;;;;;;;6.23;100.00;96608.34;1024756;29;20474;-50
2021/10/18 01:24:35;;;;;;;441.70;72.63;;;;;;;6.21;100.00;96613.66;1024462;29;20028;-50
2021/10/18 01:25:06;;;;;;;474.50;76.35;;;;;;;6.18;100.00;96612.94;1024718;29;20076;-49
2021/10/18 01:25:37;;;;;;;439.25;71.65;;;;;;;6.16;100.00;96613.00;1024511;29;20285;-49
2021/10/18 01:26:08;;;;;;;232.32;56.10;;;;;;;6.19;100.00;96612.00;1024390;29;20015;-49
2021/10/18 01:26:39;;;;;;;311.60;64.55;;;;;;;6.17;100.00;96612.06;1032528;28;20258;-49
2021/10/18 01:27:12;;;;;;;452.67;73.10;;;;;;;6.21;100.00;96611.06;1032754;28;20254;-50
2021/10/18 01:27:43;;;;;;;502.08;77.65;;;;;;;6.18;100.00;96613.78;1028593;28;20026;-50
2021/10/18 01:28:14;;;;;;;355.70;68.10;;;;;;;6.19;100.00;96612.00;1024966;29;20321;-48
2021/10/18 01:28:44;;;;;;;306.92;63.13;;;;;;;6.18;100.00;96618.13;1028785;28;20019;-49
2021/10/18 01:29:15;;;;;;;179.32;53.33;;;;;;;6.20;100.00;96621.50;1024627;29;20050;-50
2021/10/18 01:29:46;;;;;;;151.13;48.45;;;;;;;6.27;100.00;96617.75;1028592;28;20046;-50
2021/10/18 01:30:17;;;;;;;143.32;50.33;;;;;;;6.34;100.00;96621.75;1024810;29;20027;-50
2021/10/18 01:30:47;;;;;;;243.57;58.63;;;;;;;6.35;100.00;96615.66;1028667;28;20066;-50
2021/10/18 01:31:18;;;;;;;393.23;69.63;;;;;;;6.26;100.00;96623.84;1028546;28;20281;-50
2021/10/18 01:31:49;;;;;;;389.80;69.28;;;;;;;6.16;100.00;96622.56;1028810;28;20027;-50
2021/10/18 01:32:20;;;;;;;427.48;71.90;;;;;;;6.07;100.00;96618.56;1029161;28;20019;-50
2021/10/18 01:32:50;;;;;;;369.27;66.63;;;;;;;6.10;100.00;96623.66;1028536;28;20039;-49
2021/10/18 01:33:21;;;;;;;440.73;71.97;;;;;;;6.08;100.00;96624.63;1028788;28;20022;-49
2021/10/18 01:33:52;;;;;;;465.33;73.25;;;;;;;6.05;100.00;96627.38;1024209;29;20019;-50
2021/10/18 01:34:22;;;;;;;455.80;73.97;;;;;;;6.05;100.00;96624.75;1024626;29;20019;-50
2021/10/18 01:34:53;;;;;;;254.20;57.67;;;;;;;6.09;100.00;96621.97;1024648;29;20501;-49
2021/10/18 01:35:23;;;;;;;409.23;69.72;;;;;;;6.06;100.00;96616.03;1032775;28;20041;-50
2021/10/18 01:35:54;;;;;;;390.52;69.35;;;;;;;6.09;100.00;96627.16;1028784;28;20026;-52
2021/10/18 01:36:25;;;;;;;334.02;61.33;;;;;;;6.07;100.00;96625.53;1024836;28;20121;-49
2021/10/18 01:36:58;;;;;;;215.98;54.67;;;;;;;6.13;100.00;96623.50;1025031;29;20027;-50
2021/10/18 01:37:28;;;;;;;315.63;61.65;;;;;;;6.17;100.00;96621.63;1033443;28;20069;-48
2021/10/18 01:37:59;;;;;;;430.70;70.75;;;;;;;6.12;100.00;96626.19;1041619;28;21045;-49
2021/10/18 01:38:30;;;;;;;404.83;67.07;;;;;;;6.14;100.00;96627.00;1033998;28;20022;-49
2021/10/18 01:39:00;;;;;;;498.10;76.05;;;;;;;6.08;100.00;96625.50;1037519;28;20169;-49
2021/10/18 01:39:33;;;;;;;466.23;72.63;;;;;;;6.08;100.00;96629.81;1033540;28;20121;-49
2021/10/18 01:40:07;;;;;;;209.25;53.75;;;;;;;6.11;100.00;96622.75;1021408;29;20028;-49
2021/10/18 01:40:38;;;;;;;362.42;64.97;;;;;;;6.15;100.00;96621.69;1025644;29;20266;-51
2021/10/18 01:41:09;;;;;;;286.63;61.00;;;;;;;6.13;100.00;96631.31;1033540;28;20775;-49
2021/10/18 01:41:39;;;;;;;184.40;50.97;;;;;;;6.23;100.00;96621.38;1037649;28;20045;-49
2021/10/18 01:42:10;;;;;;;363.23;66.68;;;;;;;6.23;100.00;96618.75;1029549;28;20109;-50
2021/10/18 01:42:41;;;;;;;377.77;68.10;;;;;;;6.20;100.00;96629.31;1029739;28;20050;-49
2021/10/18 01:43:12;;;;;;;352.70;63.75;;;;;;;6.16;100.00;96632.97;1033303;28;20018;-49
2021/10/18 01:43:42;;;;;;;365.85;65.43;;;;;;;6.09;100.00;96628.94;1029259;28;20289;-50
2021/10/18 01:44:13;;;;;;;329.50;63.67;;;;;;;6.03;100.00;96625.66;1025407;29;20126;-50
2021/10/18 01:44:44;;;;;;;158.95;49.20;;;;;;;6.12;100.00;96629.66;1025330;29;20027;-50
2021/10/18 01:45:16;;;;;;;266.10;57.38;;;;;;;6.07;100.00;96622.94;1029718;28;20022;-50
2021/10/18 01:45:46;;;;;;;271.90;59.58;;;;;;;6.10;100.00;96635.81;1029201;28;20026;-49
2021/10/18 01:46:17;;;;;;;311.45;59.42;;;;;;;6.12;100.00;96629.66;1029021;28;20320;-49
2021/10/18 01:46:48;;;;;;;280.60;59.13;;;;;;;6.14;100.00;96634.78;1029602;28;20022;-49
2021/10/18 01:47:19;;;;;;;385.25;65.30;;;;;;;6.12;100.00;96633.97;1029982;28;20026;-50
2021/10/18 01:47:49;;;;;;;293.38;60.55;;;;;;;6.16;100.00;96635.56;1033979;28;20516;-49
2021/10/18 01:48:20;;;;;;;302.77;61.35;;;;;;;6.16;100.00;96639.00;1033578;28;20046;-49
2021/10/18 01:48:51;;;;;;;332.33;63.25;;;;;;;6.15;100.00;96636.47;1028936;28;20113;-50
2021/10/18 01:49:22;;;;;;;457.35;70.40;;;;;;;6.17;100.00;96634.66;1025519;28;20365;-49
2021/10/18 01:49:53;;;;;;;197.85;51.42;;;;;;;6.25;100.00;96637.78;1021537;29;20110;-50
2021/10/18 01:50:25;;;;;;;347.55;64.25;;;;;;;6.27;100.00;96635.09;1025310;29;20027;-50
2021/10/18 01:50:56;;;;;;;418.92;67.78;;;;;;;6.23;100.00;96644.78;1021505;29;20091;-49
2021/10/18 01:51:26;;;;;;;444.77;71.20;;;;;;;6.16;100.00;96641.63;1021261;29;20279;-50
2021/10/18 01:51:57;;;;;;;421.35;68.13;;;;;;;6.12;100.00;96642.66;1025448;29;20277;-48
2021/10/18 01:52:28;;;;;;;420.80;70.22;;;;;;;6.12;100.00;96645.25;1029529;28;20497;-50
2021/10/18 01:52:59;;;;;;;445.90;72.15;;;;;;;6.16;100.00;96641.63;1025190;29;20053;-49
2021/10/18 01:53:29;;;;;;;437.00;71.13;;;;;;;6.15;100.00;96645.09;1025541;29;20027;-49
2021/10/18 01:54:00;;;;;;;433.65;71.40;;;;;;;6.12;100.00;96637.44;1025791;28;20421;-49
2021/10/18 01:54:30;;;;;;;285.25;61.67;;;;;;;6.17;100.00;96642.44;1029819;28;20118;-50
2021/10/18 01:55:01;;;;;;;319.00;63.17;;;;;;;6.21;100.00;96638.81;1029073;28;20057;-50
2021/10/18 01:55:33;;;;;;;374.52;66.70;;;;;;;6.17;100.00;96638.09;1029659;28;20388;-50
2021/10/18 01:56:04;;;;;;;377.30;65.03;;;;;;;6.16;100.00;96641.63;1025455;28;20022;-49
2021/10/18 01:56:35;;;;;;;420.90;70.10;;;;;;;6.17;100.00;96639.84;1025826;28;20270;-49
2021/10/18 01:57:06;;;;;;;402.75;67.22;;;;;;;6.08;100.00;96620.28;1025669;28;20302;-49
2021/10/18 01:57:37;;;;;;;341.90;65.18;;;;;;;6.21;100.00;96641.41;1029767;28;20041;-51
2021/10/18 01:58:08;;;;;;;382.40;67.65;;;;;;;6.15;100.00;96639.91;1025581;28;20043;-48
2021/10/18 01:58:39;;;;;;;346.40;62.58;;;;;;;6.11;100.00;96643.56;1029314;28;20270;-49
2021/10/18 01:59:15;;;;;;;218.13;54.40;;;;;;;6.21;100.00;96644.00;1021331;29;20302;-50
2021/10/18 01:59:46;;;;;;;165.68;48.95;;;;;;;6.18;100.00;96641.56;1029564;28;20026;-50
2021/10/18 02:00:17;;;;;;;426.92;68.30;;;;;;;6.20;100.00;96642.34;1033507;28;20277;-51
2021/10/18 02:00:48;;;;;;;489.75;74.57;;;;;;;6.16;100.00;96639.00;1034524;28;20094;-49
2021/10/18 02:01:19;;;;;;;295.02;58.95;;;;;;;6.18;100.00;96639.78;1033481;28;20277;-50
2021/10/18 02:01:49;;;;;;;234.32;55.22;;;;;;;6.22;100.00;96648.31;1029613;28;20278;-49
2021/10/18 02:02:20;;;;;;;396.40;64.88;;;;;;;6.18;100.00;96642.41;1029479;28;20026;-50
2021/10/18 02:02:50;;;;;;;198.50;53.17;;;;;;;6.22;100.00;96645.72;1029209;28;20026;-48
2021/10/18 02:03:21;;;;;;;295.27;57.13;;;;;;;6.23;100.00;96647.38;1037545;28;20042;-49
2021/10/18 02:03:52;;;;;;;364.23;64.45;;;;;;;6.18;100.00;96647.59;1037796;28;20021;-49
2021/10/18 02:04:23;;;;;;;326.80;60.75;;;;;;;6.23;100.00;96650.84;1029127;28;20023;-50
2021/10/18 02:04:53;;;;;;;385.75;67.03;;;;;;;6.28;100.00;96650.66;1021264;29;20100;-50
2021/10/18 02:05:24;;;;;;;315.70;63.05;;;;;;;6.31;100.00;96644.50;1029224;28;20037;-49
2021/10/18 02:05:55;;;;;;;190.43;51.95;;;;;;;6.34;100.00;96649.56;1029300;28;20069;-48
2021/10/18 02:06:26;;;;;;;187.35;54.00;;;;;;;6.28;100.00;96653.25;1025337;29;20027;-49
2021/10/18 02:06:57;;;;;;;289.50;60.10;;;;;;;6.25;100.00;96656.00;1025108;29;20580;-48
2021/10/18 02:07:28;;;;;;;318.65;59.35;;;;;;;6.28;100.00;96648.06;1021232;29;20510;-49
2021/10/18 02:07:59;;;;;;;225.00;53.40;;;;;;;6.26;100.00;96639.47;1025408;29;20326;-49
2021/10/18 02:08:33;;;;;;;507.42;74.22;;;;;;;6.30;100.00;96643.63;1025621;28;20059;-50
2021/10/18 02:09:04;;;;;;;467.27;70.65;;;;;;;6.26;100.00;96647.28;1030260;28;20014;-51
2021/10/18 02:09:35;;;;;;;426.92;71.72;;;;;;;6.20;100.00;96640.56;1029328;28;20262;-52
2021/10/18 02:10:06;;;;;;;297.48;56.53;;;;;;;6.26;100.00;96646.44;1025688;29;20011;-52
2021/10/18 02:10:36;;;;;;;261.50;56.17;;;;;;;6.28;100.00;96639.41;1025563;28;20458;-52
2021/10/18 02:11:07;;;;;;;174.88;50.05;;;;;;;6.32;100.00;96643.56;1021244;29;20024;-52
2021/10/18 02:11:38;;;;;;;416.15;70.90;;;;;;;6.29;100.00;96643.69;1025211;29;20027;-53
2021/10/18 02:12:09;;;;;;;319.17;59.63;;;;;;;6.27;100.00;96648.97;1029092;28;20011;-53
2021/10/18 02:12:39;;;;;;;438.92;70.57;;;;;;;6.29;100.00;96643.69;1029504;28;20014;-53
2021/10/18 02:13:10;;;;;;;444.90;68.95;;;;;;;6.33;100.00;96647.88;1025255;28;20029;-53
2021/10/18 02:13:41;;;;;;;316.23;61.58;;;;;;;6.30;100.00;96645.38;1021364;28;20024;-51
2021/10/18 02:14:11;;;;;;;397.20;65.72;;;;;;;6.30;100.00;96646.22;1021465;29;20098;-52
2021/10/18 02:14:42;;;;;;;435.77;68.20;;;;;;;6.24;100.00;96654.31;1025285;29;20075;-52
2021/10/18 02:15:13;;;;;;;402.98;68.47;;;;;;;6.28;100.00;96653.25;1021319;29;20039;-51
2021/10/18 02:15:43;;;;;;;378.08;66.20;;;;;;;6.28;100.00;96653.25;1028356;28;20473;-52
2021/10/18 02:16:14;;;;;;;404.55;69.40;;;;;;;6.34;100.00;96652.16;1028318;28;20014;-52
2021/10/18 02:16:45;;;;;;;384.48;65.57;;;;;;;6.33;100.00;96650.47;1032409;28;20018;-52
2021/10/18 02:17:15;;;;;;;436.80;68.80;;;;;;;6.34;100.00;96650.38;1028339;28;20031;-52
2021/10/18 02:17:46;;;;;;;412.80;68.28;;;;;;;6.31;100.00;96647.09;1024186;28;20088;-51
2021/10/18 02:18:17;;;;;;;435.15;67.57;;;;;;;6.34;100.00;96647.78;1028214;28;20067;-50
2021/10/18 02:18:47;;;;;;;406.45;67.45;;;;;;;6.34;100.00;96650.38;1032372;28;20042;-54
2021/10/18 02:19:18;;;;;;;354.95;64.95;;;;;;;6.38;100.00;96653.72;1032842;28;20433;-51
2021/10/18 02:19:49;;;;;;;363.50;66.22;;;;;;;6.34;100.00;96650.38;1024983;28;20042;-51
2021/10/18 02:20:20;;;;;;;310.23;60.30;;;;;;;6.34;100.00;96653.00;1028928;28;20019;-53
2021/10/18 02:20:50;;;;;;;147.23;47.47;;;;;;;6.37;100.00;96649.44;1024897;29;20572;-51